Time;durP1;ratioP1;P1;durP2;ratioP2;P2;SDS_P1;SDS_P2;PMS_P1;PMS_P2;Temp;Humidity;BMP_temperature;BMP_pressure;BME280_temperature;BME280_humidity;BME280_pressure;Samples;Min_cycle;Max_cycle;Signal;HPM_P1;HPM_P2
2022/01/11 00:00:21;;;;;;;45.10;14.25;;;;;;;-2.57;100.00;93922.88;2090010;28;20151;-82
2022/01/11 00:01:22;;;;;;;30.75;14.68;;;;;;;-2.56;100.00;93924.41;2090464;28;20442;-80
2022/01/11 00:02:38;;;;;;;32.47;14.52;;;;;;;-2.66;100.00;93924.75;2090056;28;20102;-81
2022/01/11 00:03:42;;;;;;;44.95;12.45;;;;;;;-2.66;100.00;93926.63;2094012;28;20068;-81
2022/01/11 00:04:43;;;;;;;49.70;12.38;;;;;;;-2.70;100.00;93929.09;2098886;28;20090;-81
2022/01/11 00:06:49;;;;;;;46.40;13.18;;;;;;;-2.74;100.00;93927.41;2098706;28;20031;-81
2022/01/11 00:07:52;;;;;;;28.33;13.15;;;;;;;-2.79;100.00;93928.34;2106727;28;20429;-81
2022/01/11 00:08:59;;;;;;;39.35;12.23;;;;;;;-2.85;100.00;93922.50;2102195;28;20078;-81
2022/01/11 00:10:01;;;;;;;33.63;13.98;;;;;;;-2.98;100.00;93925.31;2098845;28;20036;-81
2022/01/11 00:11:11;;;;;;;31.08;13.35;;;;;;;-2.92;100.00;93927.44;2091796;28;20064;-81
2022/01/11 00:12:12;;;;;;;26.55;13.43;;;;;;;-2.98;100.00;93930.53;2097613;28;20861;-80
2022/01/11 00:13:15;;;;;;;33.80;13.07;;;;;;;-2.97;100.00;93922.38;2096130;28;20029;-81
2022/01/11 00:14:16;;;;;;;33.55;12.55;;;;;;;-2.77;100.00;93920.94;2090591;28;20033;-81
2022/01/11 00:15:17;;;;;;;26.23;13.15;;;;;;;-2.73;100.00;93914.00;2098104;28;20107;-81
2022/01/11 00:16:18;;;;;;;28.13;12.57;;;;;;;-2.74;100.00;93917.69;2106483;28;20024;-81
2022/01/11 00:17:19;;;;;;;25.30;12.48;;;;;;;-2.80;100.00;93922.34;2106500;28;20051;-81
2022/01/11 00:18:21;;;;;;;25.33;14.00;;;;;;;-2.94;100.00;93915.72;2089925;28;20819;-81
2022/01/11 00:19:22;;;;;;;21.85;12.45;;;;;;;-3.08;100.00;93923.75;2089932;28;20021;-82
2022/01/11 00:20:26;;;;;;;20.77;13.00;;;;;;;-3.04;100.00;93922.81;2081684;28;20030;-82
2022/01/11 00:21:28;;;;;;;22.20;12.73;;;;;;;-3.01;100.00;93916.22;2090630;28;20033;-81
2022/01/11 00:22:36;;;;;;;20.35;12.27;;;;;;;-3.07;100.00;93915.63;2098750;28;20024;-81
2022/01/11 00:24:42;;;;;;;21.80;12.60;;;;;;;-3.27;100.00;93915.47;2090964;28;20017;-81
2022/01/11 00:25:48;;;;;;;30.15;13.43;;;;;;;-3.27;100.00;93920.72;2089587;28;20515;-81
2022/01/11 00:26:49;;;;;;;23.25;13.32;;;;;;;-3.28;100.00;93916.56;2098031;28;20024;-81
2022/01/11 00:27:49;;;;;;;25.35;12.77;;;;;;;-3.31;100.00;93920.56;2081663;28;20025;-82
2022/01/11 00:28:50;;;;;;;22.42;12.80;;;;;;;-3.34;100.00;93921.16;2089290;28;20044;-81
2022/01/11 00:29:54;;;;;;;22.35;12.00;;;;;;;-3.35;100.00;93923.00;2097858;28;20017;-81
2022/01/11 00:30:56;;;;;;;22.73;12.70;;;;;;;-3.51;100.00;93924.56;2090048;28;20025;-81
2022/01/11 00:32:03;;;;;;;23.05;12.82;;;;;;;-3.47;100.00;93925.47;2089889;28;20347;-81
2022/01/11 00:33:09;;;;;;;19.02;12.50;;;;;;;-3.50;100.00;93928.72;2090528;28;20358;-81
2022/01/11 00:34:10;;;;;;;21.80;12.27;;;;;;;-3.34;100.00;93934.22;2082816;28;20029;-81
2022/01/11 00:35:15;;;;;;;21.70;12.65;;;;;;;-3.44;100.00;93929.31;2089647;28;20029;-81
2022/01/11 00:36:16;;;;;;;20.08;12.38;;;;;;;-3.48;100.00;93929.16;2082654;28;20087;-81
2022/01/11 00:37:19;;;;;;;18.48;12.00;;;;;;;-3.46;100.00;93924.41;2081558;28;20360;-81
2022/01/11 00:38:20;;;;;;;19.60;11.25;;;;;;;-3.43;100.00;93921.16;2090065;28;20470;-81
2022/01/11 00:39:21;;;;;;;22.05;12.02;;;;;;;-3.55;100.00;93926.25;2101567;28;20028;-81
2022/01/11 00:40:22;;;;;;;22.02;11.43;;;;;;;-3.61;100.00;93930.84;2089567;28;20025;-80
2022/01/11 00:41:23;;;;;;;24.33;12.82;;;;;;;-3.67;100.00;93931.31;2089710;28;20178;-80
2022/01/11 00:42:24;;;;;;;21.65;11.52;;;;;;;-3.62;100.00;93928.53;2089761;28;20476;-80
2022/01/11 00:43:27;;;;;;;18.77;11.07;;;;;;;-3.62;100.00;93924.06;2097824;28;20029;-80
2022/01/11 00:44:43;;;;;;;19.23;11.60;;;;;;;-3.66;100.00;93930.97;2081823;28;20116;-81
2022/01/11 00:45:45;;;;;;;19.42;10.18;;;;;;;-3.68;100.00;93924.53;2090646;28;20106;-81
2022/01/11 00:46:46;;;;;;;17.75;11.38;;;;;;;-3.64;100.00;93930.69;2098823;28;20087;-81
2022/01/11 00:47:47;;;;;;;17.50;10.00;;;;;;;-3.67;100.00;93926.06;2097389;28;20020;-81
2022/01/11 00:48:48;;;;;;;16.00;9.93;;;;;;;-3.62;100.00;93926.69;2101250;28;20024;-81
2022/01/11 00:49:51;;;;;;;16.45;11.00;;;;;;;-3.51;100.00;93921.94;2086432;28;20029;-81
2022/01/11 00:50:53;;;;;;;17.63;10.50;;;;;;;-3.28;100.00;93925.16;2087783;28;20028;-80
2022/01/11 00:51:54;;;;;;;19.05;10.45;;;;;;;-3.19;100.00;93922.56;2093153;28;20222;-81
2022/01/11 00:52:54;;;;;;;15.23;9.93;;;;;;;-3.39;100.00;93922.09;2097681;28;20029;-80
2022/01/11 00:53:57;;;;;;;16.17;9.90;;;;;;;-3.36;100.00;93920.72;2097304;28;20020;-81
2022/01/11 00:55:03;;;;;;;15.68;9.68;;;;;;;-3.38;100.00;93922.84;2082041;28;20134;-80
2022/01/11 00:56:08;;;;;;;17.15;9.85;;;;;;;-3.42;100.00;93917.50;2106424;28;20453;-81
2022/01/11 00:57:10;;;;;;;16.92;10.50;;;;;;;-3.47;100.00;93922.06;2105834;28;20488;-81
2022/01/11 00:58:11;;;;;;;14.93;10.20;;;;;;;-3.46;100.00;93918.41;2098303;28;20091;-81
2022/01/11 00:59:12;;;;;;;18.10;11.52;;;;;;;-3.45;100.00;93925.16;2105696;28;20173;-81
2022/01/11 01:00:14;;;;;;;16.67;10.15;;;;;;;-3.38;100.00;93933.31;2114226;28;20100;-81
2022/01/11 01:01:15;;;;;;;19.17;11.50;;;;;;;-3.25;100.00;93921.91;2105917;28;20024;-81
2022/01/11 01:02:16;;;;;;;20.90;12.25;;;;;;;-3.04;100.00;93924.69;2097558;28;20059;-81
2022/01/11 01:03:17;;;;;;;18.48;11.43;;;;;;;-3.16;100.00;93927.16;2097387;28;20024;-82
2022/01/11 01:04:19;;;;;;;21.25;12.82;;;;;;;-3.20;100.00;93934.09;2094156;28;20425;-81
2022/01/11 01:05:22;;;;;;;18.23;10.75;;;;;;;-3.04;100.00;93930.66;2093239;28;20020;-81
2022/01/11 01:06:23;;;;;;;18.20;10.95;;;;;;;-2.98;100.00;93927.91;2089719;28;20052;-82
2022/01/11 01:07:24;;;;;;;20.02;12.05;;;;;;;-3.02;100.00;93932.22;2089450;28;20489;-81
2022/01/11 01:08:25;;;;;;;17.92;10.90;;;;;;;-3.07;100.00;93933.16;2089630;28;20031;-82
2022/01/11 01:09:32;;;;;;;21.77;12.70;;;;;;;-3.10;100.00;93937.16;2097705;28;20493;-81
2022/01/11 01:10:39;;;;;;;22.98;12.07;;;;;;;-3.14;100.00;93943.31;2091067;28;20021;-81
2022/01/11 01:11:43;;;;;;;18.88;10.57;;;;;;;-3.16;100.00;93940.22;2090628;28;20024;-81
2022/01/11 01:12:51;;;;;;;18.60;11.65;;;;;;;-3.17;100.00;93944.69;2097624;28;20605;-81
2022/01/11 01:13:52;;;;;;;21.02;12.68;;;;;;;-3.10;100.00;93937.16;2094343;28;20139;-80
2022/01/11 01:14:54;;;;;;;19.25;12.40;;;;;;;-3.15;100.00;93945.16;2097550;28;20032;-81
2022/01/11 01:15:56;;;;;;;20.30;11.90;;;;;;;-3.13;100.00;93942.22;2089425;28;20021;-81
2022/01/11 01:16:57;;;;;;;20.75;12.18;;;;;;;-3.12;100.00;93939.28;2089755;28;20028;-81
2022/01/11 01:17:58;;;;;;;21.90;12.10;;;;;;;-3.09;100.00;93940.53;2097592;28;20581;-82
2022/01/11 01:19:14;;;;;;;22.45;12.00;;;;;;;-3.05;100.00;93944.06;2089468;28;20116;-81
2022/01/11 01:20:21;;;;;;;19.38;10.73;;;;;;;-2.88;100.00;93945.91;2099457;28;20020;-81
2022/01/11 01:21:36;;;;;;;21.48;11.35;;;;;;;-2.96;100.00;93938.81;2098262;28;20064;-81
2022/01/11 01:22:42;;;;;;;17.35;10.85;;;;;;;-3.03;100.00;93947.13;2099580;28;20066;-82
2022/01/11 01:23:44;;;;;;;20.02;10.95;;;;;;;-2.85;100.00;93948.66;2099204;28;20087;-82
2022/01/11 01:24:46;;;;;;;22.70;12.07;;;;;;;-2.77;100.00;93947.09;2097662;28;20111;-82
2022/01/11 01:25:48;;;;;;;21.20;11.88;;;;;;;-2.85;100.00;93946.06;2097823;28;20112;-81
2022/01/11 01:26:49;;;;;;;18.40;10.77;;;;;;;-2.66;100.00;93947.56;2097626;28;20070;-82
2022/01/11 01:27:52;;;;;;;23.02;11.32;;;;;;;-2.74;100.00;93950.94;2089045;28;20056;-81
2022/01/11 01:28:53;;;;;;;23.85;12.15;;;;;;;-2.83;100.00;93948.34;2089884;28;20108;-82
2022/01/11 01:29:54;;;;;;;21.73;12.30;;;;;;;-2.85;100.00;93946.06;2097358;28;20021;-82
2022/01/11 01:31:00;;;;;;;24.00;12.55;;;;;;;-2.86;100.00;93946.34;2089196;28;20021;-81
2022/01/11 01:32:01;;;;;;;20.27;11.07;;;;;;;-2.89;100.00;93945.13;2090414;28;20029;-81
2022/01/11 01:33:06;;;;;;;22.38;11.48;;;;;;;-2.83;100.00;93946.50;2097974;28;20103;-81
2022/01/11 01:34:07;;;;;;;25.67;11.32;;;;;;;-2.81;100.00;93946.97;2097537;28;20021;-82
2022/01/11 01:35:09;;;;;;;21.70;11.57;;;;;;;-2.77;100.00;93939.25;2089398;28;20017;-82
2022/01/11 01:36:11;;;;;;;20.05;11.27;;;;;;;-2.78;100.00;93948.19;2097619;28;20052;-81
2022/01/11 01:37:12;;;;;;;21.98;11.63;;;;;;;-2.79;100.00;93944.78;2089380;28;20785;-81
2022/01/11 01:38:21;;;;;;;21.77;12.35;;;;;;;-2.75;100.00;93942.34;2080943;28;20025;-81
2022/01/11 01:39:22;;;;;;;20.95;11.25;;;;;;;-2.70;100.00;93944.00;2090086;28;20020;-81
2022/01/11 01:40:23;;;;;;;24.63;12.23;;;;;;;-2.79;100.00;93938.81;2080878;28;20095;-81
2022/01/11 01:41:24;;;;;;;23.90;12.70;;;;;;;-2.78;100.00;93941.09;2089070;28;20025;-80
2022/01/11 01:42:29;;;;;;;23.67;12.52;;;;;;;-2.70;100.00;93939.53;2097628;28;20028;-81
2022/01/11 01:43:36;;;;;;;23.02;11.80;;;;;;;-2.56;100.00;93942.72;2089348;28;20486;-81
2022/01/11 01:44:40;;;;;;;18.83;11.02;;;;;;;-2.64;100.00;93940.16;2082436;28;20033;-82
2022/01/11 01:45:43;;;;;;;19.88;11.48;;;;;;;-2.75;100.00;93942.34;2081894;28;20064;-81
2022/01/11 01:46:45;;;;;;;20.73;11.18;;;;;;;-2.69;100.00;93941.06;2081493;28;20025;-81
2022/01/11 01:47:52;;;;;;;20.27;11.70;;;;;;;-2.52;100.00;93937.66;2081092;28;20391;-81
2022/01/11 01:49:02;;;;;;;22.52;11.90;;;;;;;-2.56;100.00;93945.34;2082634;28;20025;-81
2022/01/11 01:50:05;;;;;;;;;;;;;;;-2.70;100.00;93950.00;2090951;28;20029;-81
2022/01/11 01:51:09;;;;;;;21.10;12.02;;;;;;;-2.70;100.00;93950.00;2089687;28;19912;-81
2022/01/11 01:52:10;;;;;;;23.35;11.60;;;;;;;-2.76;100.00;93953.88;2104127;28;20222;-81
2022/01/11 01:53:13;;;;;;;18.90;11.05;;;;;;;-2.71;100.00;93958.19;2105654;28;20377;-81
2022/01/11 01:54:15;;;;;;;20.73;11.88;;;;;;;-2.45;100.00;93947.66;2097422;28;20381;-82
2022/01/11 01:55:17;;;;;;;23.33;12.30;;;;;;;-2.50;100.00;93950.41;2081377;28;20036;-81
2022/01/11 01:56:21;;;;;;;21.83;12.45;;;;;;;-2.34;100.00;93952.22;2089329;28;20078;-80
2022/01/11 01:57:23;;;;;;;20.88;11.82;;;;;;;-2.46;100.00;93946.09;2097630;28;20094;-81
2022/01/11 01:58:25;;;;;;;22.15;11.98;;;;;;;-2.53;100.00;93943.97;2089222;28;20060;-81
2022/01/11 01:59:27;;;;;;;21.20;12.65;;;;;;;-2.53;100.00;93944.75;2081036;28;20112;-81
2022/01/11 02:00:30;;;;;;;22.25;11.65;;;;;;;-2.57;100.00;93941.22;2081022;28;20510;-81
2022/01/11 02:01:39;;;;;;;26.50;13.10;;;;;;;-2.68;100.00;93950.47;2096624;28;20063;-81
2022/01/11 02:02:40;;;;;;;21.77;11.73;;;;;;;-2.73;100.00;93952.47;2090141;28;20446;-81
2022/01/11 02:03:43;;;;;;;19.48;11.93;;;;;;;-2.73;100.00;93953.25;2089068;28;20029;-81
2022/01/11 02:04:47;;;;;;;19.42;11.48;;;;;;;-2.68;100.00;93953.06;2097510;28;20032;-81
2022/01/11 02:05:51;;;;;;;19.13;11.85;;;;;;;-2.49;100.00;93954.59;2097661;28;20027;-81
2022/01/11 02:06:52;;;;;;;19.13;12.27;;;;;;;-2.57;100.00;93954.28;2105557;28;20427;-80
2022/01/11 02:07:53;;;;;;;20.25;11.65;;;;;;;-2.59;100.00;93951.22;2114069;28;20552;-81
2022/01/11 02:10:22;;;;;;;18.45;10.18;;;;;;;-2.60;100.00;93962.75;2131106;27;20190;-80
2022/01/11 02:11:24;;;;;;;18.05;10.13;;;;;;;-2.65;100.00;93960.31;2112619;28;20081;-80
2022/01/11 02:12:25;;;;;;;23.80;11.55;;;;;;;-2.56;100.00;93955.81;2096530;28;20385;-80
2022/01/11 02:13:28;;;;;;;19.83;11.10;;;;;;;-2.49;100.00;93954.59;2104663;28;20051;-80
2022/01/11 02:14:29;;;;;;;23.05;12.48;;;;;;;-2.39;100.00;93956.88;2104554;28;20063;-80
2022/01/11 02:15:30;;;;;;;21.05;11.68;;;;;;;-2.48;100.00;93961.34;2096153;28;20223;-80
2022/01/11 02:16:31;;;;;;;19.52;11.45;;;;;;;-2.47;100.00;93957.66;2104397;28;20170;-80
2022/01/11 02:17:39;;;;;;;19.67;12.38;;;;;;;-2.49;100.00;93962.44;2096053;28;20492;-80
2022/01/11 02:18:42;;;;;;;21.65;12.20;;;;;;;-2.54;100.00;93964.16;2097110;28;20116;-80
2022/01/11 02:19:43;;;;;;;21.77;12.20;;;;;;;-2.51;100.00;93960.13;2096388;28;20020;-80
2022/01/11 02:20:45;;;;;;;21.35;12.93;;;;;;;-2.48;100.00;93958.75;2096391;28;20053;-80
2022/01/11 02:21:46;;;;;;;28.20;13.10;;;;;;;-2.45;100.00;93958.13;2099612;28;20462;-80
2022/01/11 02:22:47;;;;;;;21.70;12.32;;;;;;;-2.47;100.00;93961.03;2104717;28;20054;-80
2022/01/11 02:23:52;;;;;;;27.65;13.25;;;;;;;-2.47;100.00;93960.28;2096016;28;20083;-80
2022/01/11 02:24:53;;;;;;;22.42;13.57;;;;;;;-2.46;100.00;93959.19;2105616;28;20505;-80
2022/01/11 02:26:01;;;;;;;22.48;13.00;;;;;;;-2.42;100.00;93958.25;2112864;28;20034;-80
2022/01/11 02:27:10;;;;;;;23.05;12.70;;;;;;;-2.43;100.00;93951.47;2097815;28;20036;-79
2022/01/11 02:28:21;;;;;;;26.23;14.23;;;;;;;-2.37;100.00;93955.47;2090196;28;20163;-80
2022/01/11 02:29:32;;;;;;;24.10;12.95;;;;;;;-2.39;100.00;93959.47;2100916;28;20040;-81
2022/01/11 02:30:41;;;;;;;21.70;13.35;;;;;;;-2.45;100.00;93955.50;2104421;28;20020;-80
2022/01/11 02:31:49;;;;;;;25.95;13.82;;;;;;;-2.39;100.00;93959.47;2096151;28;20028;-80
2022/01/11 02:33:00;;;;;;;29.75;14.73;;;;;;;-2.35;100.00;93952.53;2105540;28;20036;-80
2022/01/11 02:34:04;;;;;;;25.52;14.38;;;;;;;-2.25;100.00;93949.56;2108009;28;20408;-81
2022/01/11 02:35:07;;;;;;;23.05;13.30;;;;;;;-2.13;100.00;93954.91;2107551;28;20523;-80
2022/01/11 02:36:27;;;;;;;27.88;14.77;;;;;;;-2.08;100.00;93946.88;2113161;28;20103;-81
2022/01/11 02:37:33;;;;;;;25.70;13.85;;;;;;;-2.08;100.00;93951.34;2106931;28;20504;-81
2022/01/11 02:38:42;;;;;;;28.92;13.77;;;;;;;-2.13;100.00;93954.16;2105677;28;20032;-81
2022/01/11 02:39:47;;;;;;;25.45;14.45;;;;;;;-2.11;100.00;93957.22;2112601;28;20046;-80
2022/01/11 02:40:48;;;;;;;26.08;13.98;;;;;;;-2.11;100.00;93955.38;2104437;28;20115;-80
2022/01/11 02:41:55;;;;;;;27.73;14.57;;;;;;;-2.04;100.00;93947.78;2095757;28;20025;-81
2022/01/11 02:42:56;;;;;;;24.70;13.52;;;;;;;-1.86;100.00;93950.31;2097638;28;20111;-81
2022/01/11 02:43:58;;;;;;;31.85;14.35;;;;;;;-1.94;100.00;93954.50;2104348;28;20028;-81
2022/01/11 02:45:00;;;;;;;27.67;14.15;;;;;;;-2.00;100.00;93955.78;2112958;28;20019;-81
2022/01/11 02:46:02;;;;;;;25.20;13.93;;;;;;;-2.03;100.00;93954.56;2112472;28;20054;-81
2022/01/11 02:47:06;;;;;;;26.60;14.30;;;;;;;-1.94;100.00;93953.75;2105288;28;20031;-81
2022/01/11 02:48:08;;;;;;;25.70;13.85;;;;;;;-2.05;100.00;93948.13;2104276;28;20020;-81
2022/01/11 02:49:12;;;;;;;31.42;15.43;;;;;;;-2.16;100.00;93958.16;2104167;28;20020;-81
2022/01/11 02:50:19;;;;;;;33.97;15.77;;;;;;;-2.22;100.00;93954.19;2096294;28;20036;-80
2022/01/11 02:51:29;;;;;;;25.02;13.02;;;;;;;-2.16;100.00;93952.91;2104898;28;20021;-80
2022/01/11 02:52:30;;;;;;;31.65;14.85;;;;;;;-2.26;100.00;93957.75;2106215;28;20406;-80
2022/01/11 02:53:39;;;;;;;28.48;15.10;;;;;;;-2.23;100.00;93954.50;2104220;28;20119;-80
2022/01/11 02:54:40;;;;;;;27.48;14.35;;;;;;;-2.18;100.00;93959.56;2105359;28;20016;-81
2022/01/11 02:58:14;;;;;;;32.58;14.25;;;;;;;-2.17;100.00;93951.38;2099794;28;20028;-80
2022/01/11 03:00:14;;;;;;;26.75;13.32;;;;;;;-2.14;100.00;93953.38;2115108;28;20051;-80
2022/01/11 03:02:14;;;;;;;25.17;12.57;;;;;;;-2.09;100.00;93955.81;2110342;28;20077;-82
2022/01/11 03:03:59;;;;;;;27.25;12.57;;;;;;;-1.96;100.00;93950.69;2120784;28;20572;-81
2022/01/11 03:05:20;;;;;;;24.15;11.73;;;;;;;-1.83;100.00;93952.31;2101809;28;20518;-81
2022/01/11 03:06:21;;;;;;;25.10;12.25;;;;;;;-1.67;100.00;93955.91;2098569;28;20119;-81
2022/01/11 03:07:25;;;;;;;23.70;13.27;;;;;;;-1.80;100.00;93954.28;2087313;28;20033;-80
2022/01/11 03:13:16;;;;;;;24.85;12.77;;;;;;;-1.93;100.00;93960.53;2092204;28;20053;-81
2022/01/11 03:15:13;;;;;;;27.30;11.55;;;;;;;-1.94;100.00;93948.50;2093115;28;20024;-80
2022/01/11 03:18:59;;;;;;;21.50;11.45;;;;;;;-1.78;100.00;93952.13;2078606;28;20063;-81
2022/01/11 03:22:59;;;;;;;25.25;13.00;;;;;;;-1.92;100.00;93949.75;2086588;28;20036;-80
2022/01/11 03:24:03;;;;;;;23.77;13.07;;;;;;;-1.85;100.00;93942.13;2082742;28;20502;-80
2022/01/11 03:25:08;;;;;;;26.83;14.68;;;;;;;-1.93;100.00;93952.66;2083171;28;20744;-81
2022/01/11 03:26:14;;;;;;;26.20;13.70;;;;;;;-1.92;100.00;93948.97;2082268;28;20052;-80
2022/01/11 03:27:20;;;;;;;26.35;14.55;;;;;;;-1.90;100.00;93944.19;2091744;28;20082;-80
2022/01/11 03:28:23;;;;;;;26.83;15.00;;;;;;;-1.98;100.00;93945.75;2090106;28;20134;-81
2022/01/11 03:29:24;;;;;;;30.98;14.27;;;;;;;-1.97;100.00;93957.78;2073883;28;20038;-81
2022/01/11 03:30:25;;;;;;;28.45;15.43;;;;;;;-1.85;100.00;93947.38;2073328;28;20034;-81
2022/01/11 03:31:27;;;;;;;26.23;15.18;;;;;;;-1.96;100.00;93948.06;2073579;28;20050;-80
2022/01/11 03:32:28;;;;;;;26.27;15.05;;;;;;;-2.04;100.00;93947.78;2073454;28;20348;-82
2022/01/11 03:33:29;;;;;;;27.38;15.05;;;;;;;-1.99;100.00;93946.06;2073439;28;20026;-81
2022/01/11 03:34:31;;;;;;;31.70;15.23;;;;;;;-1.97;100.00;93949.16;2073490;28;20033;-81
2022/01/11 03:35:32;;;;;;;26.85;14.75;;;;;;;-1.92;100.00;93947.13;2087046;28;20367;-80
2022/01/11 03:36:33;;;;;;;26.65;15.73;;;;;;;-2.05;100.00;93951.50;2073724;28;20026;-80
2022/01/11 03:37:35;;;;;;;26.83;14.95;;;;;;;-1.94;100.00;93946.66;2081459;28;20417;-80
2022/01/11 03:38:36;;;;;;;32.58;15.48;;;;;;;-1.91;100.00;93953.13;2090104;28;20115;-80
2022/01/11 03:39:37;;;;;;;28.83;14.90;;;;;;;-1.98;100.00;93956.22;2081725;28;20030;-81
2022/01/11 03:40:41;;;;;;;29.98;15.85;;;;;;;-2.01;100.00;93954.25;2081974;28;20029;-81
2022/01/11 03:41:41;;;;;;;27.85;15.60;;;;;;;-2.05;100.00;93951.50;2090369;28;20021;-81
2022/01/11 03:42:44;;;;;;;26.10;15.20;;;;;;;-1.98;100.00;93948.38;2081816;28;20017;-81
2022/01/11 03:43:45;;;;;;;29.65;15.20;;;;;;;-1.97;100.00;93949.94;2073687;28;20022;-81
2022/01/11 03:44:47;;;;;;;24.65;14.15;;;;;;;-1.72;100.00;93956.09;2065765;28;20463;-80
2022/01/11 03:45:50;;;;;;;24.15;13.23;;;;;;;-1.87;100.00;93951.41;2065740;28;20033;-80
2022/01/11 03:46:51;;;;;;;25.15;14.15;;;;;;;-1.96;100.00;93956.69;2073939;28;20394;-80
2022/01/11 03:47:55;;;;;;;27.67;14.52;;;;;;;-2.00;100.00;93944.53;2077317;28;20021;-80
2022/01/11 03:48:56;;;;;;;29.00;15.25;;;;;;;-1.96;100.00;93958.56;2098155;28;20036;-81
2022/01/11 03:49:57;;;;;;;27.45;14.18;;;;;;;-2.00;100.00;93952.41;2089748;28;20772;-81
2022/01/11 03:50:58;;;;;;;28.33;14.32;;;;;;;-2.10;100.00;93953.53;2073895;28;20029;-81
2022/01/11 03:51:59;;;;;;;25.23;14.38;;;;;;;-2.09;100.00;93953.22;2081716;28;20450;-80
2022/01/11 03:53:14;;;;;;;24.70;14.35;;;;;;;-2.10;100.00;93951.69;2073678;28;20034;-81
2022/01/11 03:54:22;;;;;;;25.77;12.75;;;;;;;-2.05;100.00;93948.88;2075397;28;20487;-81
2022/01/11 03:55:42;;;;;;;28.77;14.40;;;;;;;-2.03;100.00;93948.56;2089255;28;20016;-81
2022/01/11 03:56:43;;;;;;;28.77;13.68;;;;;;;-1.92;100.00;93954.22;2089941;28;20021;-81
2022/01/11 03:57:44;;;;;;;27.10;14.05;;;;;;;-1.95;100.00;93957.47;2089938;28;20028;-81
2022/01/11 03:58:45;;;;;;;23.80;13.05;;;;;;;-1.91;100.00;93958.38;2073436;28;20018;-81
2022/01/11 03:59:46;;;;;;;24.17;14.20;;;;;;;-1.95;100.00;93963.47;2073402;28;20068;-80
2022/01/11 04:00:49;;;;;;;24.98;14.02;;;;;;;-1.98;100.00;93958.09;2073546;28;20026;-82
2022/01/11 04:01:58;;;;;;;19.70;12.38;;;;;;;-1.91;100.00;93951.28;2073913;28;20083;-80
2022/01/11 04:02:59;;;;;;;21.05;13.52;;;;;;;-1.90;100.00;93957.28;2074443;28;20116;-81
2022/01/11 04:04:00;;;;;;;24.45;13.80;;;;;;;-1.99;100.00;93961.78;2073448;28;20390;-80
2022/01/11 04:05:02;;;;;;;23.13;13.65;;;;;;;-2.04;100.00;93957.50;2081776;28;20443;-81
2022/01/11 04:06:04;;;;;;;24.17;13.23;;;;;;;-1.88;100.00;93958.50;2073566;28;20120;-81
2022/01/11 04:07:05;;;;;;;24.23;13.40;;;;;;;-1.93;100.00;93965.75;2065483;28;20560;-81
2022/01/11 04:08:06;;;;;;;24.40;13.55;;;;;;;-1.98;100.00;93956.22;2066927;28;20022;-81
2022/01/11 04:09:09;;;;;;;27.25;13.75;;;;;;;-2.00;100.00;93965.50;2081324;28;20065;-81
2022/01/11 04:10:10;;;;;;;23.73;13.52;;;;;;;-1.97;100.00;93963.03;2081852;28;20025;-81
2022/01/11 04:11:11;;;;;;;24.35;13.70;;;;;;;-2.00;100.00;93952.41;2073535;28;20022;-80
2022/01/11 04:12:13;;;;;;;22.15;13.13;;;;;;;-2.04;100.00;93953.03;2081455;28;20057;-81
2022/01/11 04:13:14;;;;;;;23.63;12.93;;;;;;;-2.04;100.00;93958.25;2081811;28;20485;-81
2022/01/11 04:14:20;;;;;;;26.38;12.38;;;;;;;-2.03;100.00;93957.16;2081593;28;20048;-80
2022/01/11 04:15:22;;;;;;;20.27;12.15;;;;;;;-1.96;100.00;93953.31;2091106;28;20052;-81
2022/01/11 04:16:23;;;;;;;22.17;13.73;;;;;;;-1.92;100.00;93959.47;2086578;28;20391;-81
2022/01/11 04:17:25;;;;;;;20.35;12.60;;;;;;;-1.95;100.00;93967.94;2078917;28;20044;-80
2022/01/11 04:18:30;;;;;;;23.45;12.50;;;;;;;-1.88;100.00;93955.13;2073642;28;20022;-81
2022/01/11 04:19:31;;;;;;;20.58;11.73;;;;;;;-1.90;100.00;93959.91;2073734;28;20029;-81
2022/01/11 04:20:32;;;;;;;22.30;12.32;;;;;;;-1.80;100.00;93962.16;2065284;28;20049;-81
2022/01/11 04:21:33;;;;;;;20.92;12.00;;;;;;;-1.86;100.00;93958.19;2073285;28;20104;-81
2022/01/11 04:22:50;;;;;;;20.42;12.80;;;;;;;-1.88;100.00;93955.88;2073460;28;20418;-81
2022/01/11 04:23:53;;;;;;;22.73;12.57;;;;;;;-1.86;100.00;93951.09;2081514;28;20029;-81
2022/01/11 04:24:58;;;;;;;19.70;12.10;;;;;;;-1.90;100.00;93958.03;2065483;28;20057;-81
2022/01/11 04:26:00;;;;;;;25.83;13.02;;;;;;;-1.94;100.00;93956.38;2082528;28;20028;-81
2022/01/11 04:27:01;;;;;;;24.45;12.50;;;;;;;-1.97;100.00;93963.03;2086343;28;20090;-80
2022/01/11 04:28:02;;;;;;;23.98;13.20;;;;;;;-1.84;100.00;93956.78;2076355;28;20368;-81
2022/01/11 04:29:04;;;;;;;23.60;13.10;;;;;;;-1.92;100.00;93962.06;2081424;28;20179;-81
2022/01/11 04:30:05;;;;;;;22.40;12.60;;;;;;;-1.96;100.00;93961.94;2081248;28;20037;-80
2022/01/11 04:31:06;;;;;;;21.70;12.93;;;;;;;-1.97;100.00;93962.25;2081522;28;20048;-81
2022/01/11 04:32:07;;;;;;;22.63;13.40;;;;;;;-1.96;100.00;93969.78;2073149;28;20017;-81
2022/01/11 04:33:08;;;;;;;21.88;12.77;;;;;;;-1.96;100.00;93967.19;2064483;28;20093;-80
2022/01/11 04:34:10;;;;;;;20.73;12.90;;;;;;;-1.97;100.00;93970.13;2077246;28;20061;-81
2022/01/11 04:35:13;;;;;;;24.63;13.35;;;;;;;-1.88;100.00;93966.38;2091697;28;20021;-80
2022/01/11 04:36:14;;;;;;;23.35;12.75;;;;;;;-1.91;100.00;93966.22;2089866;28;20025;-81
2022/01/11 04:37:15;;;;;;;21.80;12.35;;;;;;;-1.86;100.00;93966.03;2079803;28;20084;-81
2022/01/11 04:38:17;;;;;;;21.00;12.43;;;;;;;-1.88;100.00;93970.84;2081500;28;20487;-81
2022/01/11 04:39:18;;;;;;;23.13;13.23;;;;;;;-1.90;100.00;93971.13;2074838;28;20089;-81
2022/01/11 04:40:19;;;;;;;23.38;13.85;;;;;;;-1.82;100.00;93974.81;2081405;28;20403;-81
2022/01/11 04:41:20;;;;;;;25.70;13.40;;;;;;;-1.77;100.00;93964.16;2089834;28;20025;-81
2022/01/11 04:42:21;;;;;;;18.58;12.05;;;;;;;-1.82;100.00;93970.34;2081375;28;20191;-81
2022/01/11 04:43:30;;;;;;;19.17;11.70;;;;;;;-1.83;100.00;93973.28;2073189;28;20026;-81
2022/01/11 04:44:31;;;;;;;22.50;13.13;;;;;;;-1.82;100.00;93969.56;2075647;28;20167;-81
2022/01/11 04:45:32;;;;;;;23.63;12.13;;;;;;;-1.83;100.00;93971.44;2076982;28;20057;-81
2022/01/11 04:46:33;;;;;;;20.00;12.27;;;;;;;-1.79;100.00;93976.81;2073149;28;20104;-81
2022/01/11 04:47:34;;;;;;;20.73;12.50;;;;;;;-1.71;100.00;93977.81;2090707;28;20501;-81
2022/01/11 04:48:35;;;;;;;20.27;12.52;;;;;;;-1.71;100.00;93970.75;2081382;28;20029;-82
2022/01/11 04:49:36;;;;;;;21.55;12.65;;;;;;;-1.67;100.00;93976.88;2073131;28;20096;-82
2022/01/11 04:50:37;;;;;;;22.67;13.43;;;;;;;-1.53;100.00;93969.56;2081139;28;20470;-81
2022/01/11 04:51:38;;;;;;;23.05;12.45;;;;;;;-1.52;100.00;93973.72;2072986;28;20089;-81
2022/01/11 04:52:39;;;;;;;23.17;13.02;;;;;;;-1.67;100.00;93976.09;2081535;28;20660;-80
2022/01/11 04:53:40;;;;;;;23.90;12.75;;;;;;;-1.64;100.00;93971.00;2097702;28;20028;-81
2022/01/11 04:54:41;;;;;;;26.20;13.68;;;;;;;-1.69;100.00;93973.81;2097820;28;20028;-81
2022/01/11 04:55:43;;;;;;;23.08;12.77;;;;;;;-1.68;100.00;93972.72;2080992;28;20021;-81
2022/01/11 04:56:44;;;;;;;22.17;12.95;;;;;;;-1.62;100.00;93976.72;2073085;28;20108;-82
2022/01/11 04:57:45;;;;;;;24.77;13.50;;;;;;;-1.66;100.00;93975.81;2081215;28;20029;-79
2022/01/11 04:58:46;;;;;;;21.70;13.75;;;;;;;-1.75;100.00;93976.94;2095360;28;20035;-81
2022/01/11 04:59:47;;;;;;;20.80;13.32;;;;;;;-1.71;100.00;93977.81;2097803;28;20056;-80
2022/01/11 05:00:49;;;;;;;27.25;14.82;;;;;;;-1.61;100.00;93982.72;2081073;28;20021;-81
2022/01/11 05:01:50;;;;;;;24.00;13.73;;;;;;;-1.54;100.00;93982.97;2081360;28;20021;-81
2022/01/11 05:02:52;;;;;;;24.80;14.05;;;;;;;-1.51;100.00;93977.09;2077321;28;20026;-81
2022/01/11 05:03:54;;;;;;;20.25;12.27;;;;;;;-1.60;100.00;93979.78;2081173;28;20044;-80
2022/01/11 05:04:55;;;;;;;22.73;13.20;;;;;;;-1.60;100.00;93979.78;2073233;28;20025;-81
2022/01/11 05:05:56;;;;;;;22.13;13.30;;;;;;;-1.68;100.00;93983.22;2073225;28;20021;-82
2022/01/11 05:06:58;;;;;;;26.13;14.23;;;;;;;-1.70;100.00;93982.00;2085416;28;20028;-81